Time;durP1;ratioP1;P1;durP2;ratioP2;P2;SDS_P1;SDS_P2;PMS_P1;PMS_P2;Temp;Humidity;BMP_temperature;BMP_pressure;BME280_temperature;BME280_humidity;BME280_pressure;Samples;Min_cycle;Max_cycle;Signal;HPM_P1;HPM_P2
2023/06/18 00:00:15;;;;;;;;;;;;;;;16.91;81.03;100104.34;102571;278;114099;-57
2023/06/18 00:03:10;;;;;;;;;;;;;;;16.85;81.09;100102.95;102591;278;95250;-54
2023/06/18 00:05:41;;;;;;;;;;;;;;;16.80;81.16;100104.35;102568;279;97562;-54
2023/06/18 00:08:17;;;;;;;;;;;;;;;16.75;81.34;100104.39;102427;279;121388;-58
2023/06/18 00:10:53;;;;;;;;;;;;;;;16.77;81.41;100107.08;102587;278;105067;-57
2023/06/18 00:13:32;;;;;;;;;;;;;;;16.76;81.47;100105.72;102565;278;115143;-54
2023/06/18 00:16:07;;;;;;;;;;;;;;;16.75;81.51;100107.83;102548;278;96307;-54
2023/06/18 00:18:45;;;;;;;;;;;;;;;16.70;81.74;100106.66;102585;278;97879;-58
2023/06/18 00:21:19;;;;;;;;;;;;;;;16.67;81.95;100103.88;102522;278;121086;-58
2023/06/18 00:23:54;;;;;;;;;;;;;;;16.70;81.90;100099.20;102531;278;106492;-54
2023/06/18 00:26:35;;;;;;;;;;;;;;;16.74;81.99;100102.23;102549;278;114647;-55
2023/06/18 00:29:13;;;;;;;;;;;;;;;16.78;81.95;100104.96;102605;278;97097;-58
2023/06/18 00:31:50;;;;;;;;;;;;;;;16.81;82.13;100106.84;102592;278;97630;-57
2023/06/18 00:34:32;;;;;;;;;;;;;;;16.86;82.22;100105.53;102638;278;120997;-57
2023/06/18 00:37:09;;;;;;;;;;;;;;;16.89;82.31;100105.10;102552;278;106521;-57
2023/06/18 00:39:45;;;;;;;;;;;;;;;16.87;82.07;100104.89;102603;278;114568;-54
2023/06/18 00:42:21;;;;;;;;;;;;;;;16.85;82.01;100105.30;102570;278;97044;-54
2023/06/18 00:44:59;;;;;;;;;;;;;;;16.86;82.06;100111.98;102550;278;98418;-54
2023/06/18 00:47:32;;;;;;;;;;;;;;;16.85;81.94;100111.77;102560;278;120653;-54
2023/06/18 00:50:05;;;;;;;;;;;;;;;16.81;82.00;100106.71;102589;278;104913;-55
2023/06/18 00:52:49;;;;;;;;;;;;;;;16.78;82.17;100107.30;102514;278;114499;-55
2023/06/18 00:55:26;;;;;;;;;;;;;;;16.79;82.23;100108.09;102457;280;96168;-57
2023/06/18 00:58:03;;;;;;;;;;;;;;;16.78;82.38;100109.13;102456;280;97314;-54
2023/06/18 01:00:35;;;;;;;;;;;;;;;16.70;82.37;100112.08;102359;280;121654;-55
2023/06/18 01:03:16;;;;;;;;;;;;;;;16.61;82.66;100118.35;102470;280;106154;-54
2023/06/18 01:05:53;;;;;;;;;;;;;;;16.61;82.62;100115.74;102424;280;115002;-54
2023/06/18 01:08:28;;;;;;;;;;;;;;;16.61;82.65;100112.77;102408;280;97115;-54
2023/06/18 01:11:06;;;;;;;;;;;;;;;16.58;82.90;100111.06;102477;280;98118;-54
2023/06/18 01:13:40;;;;;;;;;;;;;;;16.55;82.84;100111.27;102453;280;121193;-59
2023/06/18 01:16:16;;;;;;;;;;;;;;;16.52;82.88;100114.78;102497;280;105365;-58
2023/06/18 01:18:56;;;;;;;;;;;;;;;16.52;83.00;100110.80;102511;280;115058;-58
2023/06/18 01:21:34;;;;;;;;;;;;;;;16.48;83.10;100112.59;102479;280;96969;-57
2023/06/18 01:24:10;;;;;;;;;;;;;;;16.48;83.24;100106.92;102482;280;97380;-55
2023/06/18 01:26:44;;;;;;;;;;;;;;;16.47;83.16;100107.73;102425;280;120703;-55
2023/06/18 01:29:16;;;;;;;;;;;;;;;16.46;83.31;100109.12;102357;280;104787;-59
2023/06/18 01:31:52;;;;;;;;;;;;;;;16.44;83.22;100111.95;102478;280;113392;-58
2023/06/18 01:34:27;;;;;;;;;;;;;;;16.37;83.49;100108.23;102439;280;96957;-55
2023/06/18 01:37:09;;;;;;;;;;;;;;;16.30;83.38;100108.88;102424;280;97994;-54
2023/06/18 01:39:54;;;;;;;;;;;;;;;16.27;83.67;100110.85;102441;280;119809;-57
2023/06/18 01:42:30;;;;;;;;;;;;;;;16.29;83.55;100114.05;102392;280;104356;-54
2023/06/18 01:45:09;;;;;;;;;;;;;;;16.24;83.61;100116.48;102397;280;113373;-58
2023/06/18 01:47:45;;;;;;;;;;;;;;;16.20;83.63;100115.13;102460;280;96472;-55
2023/06/18 01:50:22;;;;;;;;;;;;;;;16.16;83.73;100120.92;102430;268;97981;-54
2023/06/18 01:52:57;;;;;;;;;;;;;;;16.15;83.87;100122.91;102462;280;120461;-57
2023/06/18 01:55:38;;;;;;;;;;;;;;;16.09;83.74;100121.37;102441;280;105660;-57
2023/06/18 01:58:10;;;;;;;;;;;;;;;16.01;83.88;100119.30;102518;280;114021;-55
2023/06/18 02:00:40;;;;;;;;;;;;;;;15.97;83.98;100119.44;102431;280;95414;-54
2023/06/18 02:03:12;;;;;;;;;;;;;;;15.94;83.88;100120.16;102500;280;97175;-57
2023/06/18 02:05:48;;;;;;;;;;;;;;;15.98;84.24;100123.80;102475;280;120195;-57
2023/06/18 02:08:27;;;;;;;;;;;;;;;16.02;84.37;100121.09;102511;280;105137;-58
2023/06/18 02:10:57;;;;;;;;;;;;;;;16.04;84.54;100126.24;102453;280;113831;-58
2023/06/18 02:13:34;;;;;;;;;;;;;;;16.00;84.55;100126.81;102452;280;96559;-55
2023/06/18 02:16:07;;;;;;;;;;;;;;;15.98;84.53;100127.14;102403;280;96885;-55
2023/06/18 02:18:40;;;;;;;;;;;;;;;15.95;84.57;100127.33;102467;280;120327;-58
2023/06/18 02:21:16;;;;;;;;;;;;;;;15.99;84.61;100127.38;102377;280;104153;-58
2023/06/18 02:23:56;;;;;;;;;;;;;;;16.01;84.69;100127.11;102418;280;113998;-58
2023/06/18 02:26:35;;;;;;;;;;;;;;;16.01;84.75;100127.60;102362;280;96872;-58
2023/06/18 02:29:10;;;;;;;;;;;;;;;16.02;84.87;100127.61;102438;280;96688;-55
2023/06/18 02:31:46;;;;;;;;;;;;;;;16.04;85.08;100127.30;102402;280;121421;-55
2023/06/18 02:34:20;;;;;;;;;;;;;;;16.06;85.07;100130.84;102426;280;104965;-58
2023/06/18 02:36:55;;;;;;;;;;;;;;;16.05;84.98;100132.66;102443;280;114462;-57
2023/06/18 02:39:32;;;;;;;;;;;;;;;16.03;85.14;100138.72;102447;280;97444;-57
2023/06/18 02:42:06;;;;;;;;;;;;;;;16.04;85.11;100144.40;102476;280;96648;-58
2023/06/18 02:44:41;;;;;;;;;;;;;;;16.06;85.27;100147.15;102524;280;119951;-57
2023/06/18 02:47:17;;;;;;;;;;;;;;;16.06;85.35;100147.52;102459;280;104638;-57
2023/06/18 02:49:50;;;;;;;;;;;;;;;16.05;85.47;100144.26;102415;280;114359;-57
2023/06/18 02:52:26;;;;;;;;;;;;;;;16.05;85.53;100145.73;102432;280;97276;-57
2023/06/18 02:55:05;;;;;;;;;;;;;;;16.05;85.65;100146.40;102425;280;97684;-55
2023/06/18 02:57:52;;;;;;;;;;;;;;;16.08;85.74;100146.19;102407;280;121750;-57
2023/06/18 03:00:26;;;;;;;;;;;;;;;16.12;85.75;100144.91;102412;280;105238;-54
2023/06/18 03:02:59;;;;;;;;;;;;;;;16.17;85.81;100145.48;102431;280;113993;-57
2023/06/18 03:05:32;;;;;;;;;;;;;;;16.18;85.93;100143.49;102395;280;96703;-57
2023/06/18 03:08:03;;;;;;;;;;;;;;;16.22;85.92;100146.10;102449;280;96692;-56
2023/06/18 03:10:37;;;;;;;;;;;;;;;16.26;86.07;100146.22;102272;281;120078;-57
2023/06/18 03:13:12;;;;;;;;;;;;;;;16.31;86.16;100148.13;102449;280;105311;-54
2023/06/18 03:15:53;;;;;;;;;;;;;;;16.37;86.06;100146.89;102396;280;114949;-54
2023/06/18 03:18:27;;;;;;;;;;;;;;;16.43;86.27;100147.14;101850;280;627193;-57
2023/06/18 03:20:58;;;;;;;;;;;;;;;16.47;86.30;100146.28;102308;280;96936;-59
2023/06/18 03:23:32;;;;;;;;;;;;;;;16.50;86.26;100146.27;102406;280;119947;-54
2023/06/18 03:26:09;;;;;;;;;;;;;;;16.56;86.17;100144.89;102402;280;105646;-54
2023/06/18 03:28:42;;;;;;;;;;;;;;;16.67;86.09;100149.26;102407;280;112327;-54
2023/06/18 03:31:21;;;;;;;;;;;;;;;16.77;86.03;100148.42;102380;280;96814;-54
2023/06/18 03:33:52;;;;;;;;;;;;;;;16.83;86.24;100154.19;102409;280;97923;-58
2023/06/18 03:36:30;;;;;;;;;;;;;;;16.83;86.13;100155.39;102302;269;121020;-58
2023/06/18 03:39:05;;;;;;;;;;;;;;;16.89;86.11;100160.56;102390;280;106016;-54
2023/06/18 03:41:39;;;;;;;;;;;;;;;16.90;86.08;100159.10;102320;280;114454;-54
2023/06/18 03:44:16;;;;;;;;;;;;;;;16.92;85.89;100163.41;102367;280;97182;-55
2023/06/18 03:46:50;;;;;;;;;;;;;;;16.96;86.02;100160.94;102340;280;98014;-55
2023/06/18 03:49:22;;;;;;;;;;;;;;;17.04;85.94;100163.32;102340;280;121350;-55
2023/06/18 03:52:01;;;;;;;;;;;;;;;17.11;85.86;100169.38;102296;280;105098;-54
2023/06/18 03:54:38;;;;;;;;;;;;;;;17.18;85.88;100177.17;102301;280;114788;-57
2023/06/18 03:57:15;;;;;;;;;;;;;;;17.27;85.82;100179.58;102287;280;96757;-56
2023/06/18 03:59:55;;;;;;;;;;;;;;;17.37;85.82;100180.52;102367;280;98152;-58
2023/06/18 04:02:35;;;;;;;;;;;;;;;17.47;85.66;100182.70;102308;280;120515;-56
2023/06/18 04:05:12;;;;;;;;;;;;;;;17.53;85.60;100181.82;102329;280;105958;-55
2023/06/18 04:07:43;;;;;;;;;;;;;;;17.60;85.52;100178.49;102337;280;114697;-55
2023/06/18 04:10:14;;;;;;;;;;;;;;;17.66;85.38;100175.10;102337;280;95910;-55
2023/06/18 04:12:47;;;;;;;;;;;;;;;17.69;85.15;100173.83;102401;280;96107;-57
2023/06/18 04:15:27;;;;;;;;;;;;;;;17.75;85.24;100175.55;102455;280;121373;-59
2023/06/18 04:17:58;;;;;;;;;;;;;;;17.82;85.02;100178.85;102468;280;102933;-55
2023/06/18 04:20:31;;;;;;;;;;;;;;;17.86;84.82;100173.80;102322;280;113414;-55
2023/06/18 04:23:09;;;;;;;;;;;;;;;17.92;84.73;100176.21;102344;280;96965;-56
2023/06/18 04:25:51;;;;;;;;;;;;;;;17.96;84.54;100173.56;102364;280;97308;-55
2023/06/18 04:28:24;;;;;;;;;;;;;;;17.98;84.57;100170.77;102371;280;121442;-58
2023/06/18 04:31:03;;;;;;;;;;;;;;;18.00;84.43;100174.57;102294;280;105585;-58
2023/06/18 04:33:39;;;;;;;;;;;;;;;18.04;84.37;100178.20;102357;280;114920;-54
2023/06/18 04:36:15;;;;;;;;;;;;;;;18.05;84.32;100181.78;102313;280;94888;-54
2023/06/18 04:38:53;;;;;;;;;;;;;;;18.06;84.23;100188.43;102353;280;97783;-57
2023/06/18 04:41:28;;;;;;;;;;;;;;;18.04;84.18;100191.13;102310;280;121609;-58
2023/06/18 04:44:08;;;;;;;;;;;;;;;18.06;84.04;100193.98;102360;280;106350;-57
2023/06/18 04:46:47;;;;;;;;;;;;;;;18.08;84.09;100196.13;102387;269;115138;-57
2023/06/18 04:49:30;;;;;;;;;;;;;;;18.11;83.93;100199.08;102386;280;97304;-54
2023/06/18 04:52:04;;;;;;;;;;;;;;;18.07;83.81;100198.55;102371;280;96412;-55
2023/06/18 04:54:39;;;;;;;;;;;;;;;18.07;83.86;100198.34;102380;280;120734;-55
2023/06/18 04:57:20;;;;;;;;;;;;;;;18.07;83.86;100196.97;102391;269;106891;-55
2023/06/18 04:59:59;;;;;;;;;;;;;;;18.11;83.80;100199.52;102425;280;113923;-57
2023/06/18 05:02:34;;;;;;;;;;;;;;;18.17;83.81;100201.77;102413;280;96552;-57
2023/06/18 05:05:05;;;;;;;;;;;;;;;18.22;83.84;100207.28;102403;280;97668;-57
2023/06/18 05:07:49;;;;;;;;;;;;;;;18.31;83.64;100208.04;102399;280;121343;-57
2023/06/18 05:10:33;;;;;;;;;;;;;;;18.34;83.46;100209.38;102349;280;105480;-53
2023/06/18 05:13:09;;;;;;;;;;;;;;;18.34;83.33;100207.61;102351;280;113686;-55
2023/06/18 05:15:48;;;;;;;;;;;;;;;18.38;83.18;100209.83;102282;280;95980;-55
2023/06/18 05:18:20;;;;;;;;;;;;;;;18.49;83.05;100208.09;102372;280;96796;-58
2023/06/18 05:20:58;;;;;;;;;;;;;;;18.57;83.16;100211.14;102325;269;120763;-57
2023/06/18 05:23:29;;;;;;;;;;;;;;;18.68;82.91;100207.84;102390;280;105629;-56
2023/06/18 05:26:08;;;;;;;;;;;;;;;18.86;82.83;100205.24;102304;280;113854;-57
2023/06/18 05:28:43;;;;;;;;;;;;;;;19.09;82.83;100205.73;102337;280;93904;-57
2023/06/18 05:31:18;;;;;;;;;;;;;;;19.28;82.45;100206.49;102376;280;97575;-57
2023/06/18 05:33:59;;;;;;;;;;;;;;;19.52;82.29;100211.85;102397;280;120365;-58
2023/06/18 05:36:32;;;;;;;;;;;;;;;19.70;81.78;100214.09;102423;280;104792;-62
2023/06/18 05:39:11;;;;;;;;;;;;;;;19.81;81.45;100217.96;102445;280;114382;-55
2023/06/18 05:41:50;;;;;;;;;;;;;;;19.90;81.21;100218.52;102482;280;92064;-54
2023/06/18 05:44:21;;;;;;;;;;;;;;;20.00;80.94;100223.92;102464;280;96875;-57
2023/06/18 05:46:54;;;;;;;;;;;;;;;20.04;80.58;100223.64;102430;280;120491;-57
2023/06/18 05:49:30;;;;;;;;;;;;;;;20.02;80.27;100222.08;102512;280;105749;-58
2023/06/18 05:52:03;;;;;;;;;;;;;;;19.99;80.12;100225.48;102458;280;114555;-58
2023/06/18 05:54:38;;;;;;;;;;;;;;;20.03;79.75;100225.98;102375;280;97500;-54
2023/06/18 05:57:11;;;;;;;;;;;;;;;20.08;79.71;100231.23;102386;280;97395;-54
2023/06/18 05:59:47;;;;;;;;;;;;;;;20.14;79.47;100235.38;102416;280;119492;-54
2023/06/18 06:02:25;;;;;;;;;;;;;;;20.17;79.42;100237.89;102357;280;104671;-55
2023/06/18 06:05:01;;;;;;;;;;;;;;;20.21;79.17;100237.57;102382;280;114711;-57
2023/06/18 06:07:41;;;;;;;;;;;;;;;20.20;79.07;100240.23;102359;280;96458;-57
2023/06/18 06:10:19;;;;;;;;;;;;;;;20.11;79.07;100236.23;102359;280;97314;-54
2023/06/18 06:12:55;;;;;;;;;;;;;;;20.21;78.97;100236.91;102390;280;119043;-58
2023/06/18 06:15:26;;;;;;;;;;;;;;;20.33;79.04;100235.86;102383;280;105112;-59
2023/06/18 06:18:03;;;;;;;;;;;;;;;20.46;78.89;100234.36;102421;280;113784;-54
2023/06/18 06:20:46;;;;;;;;;;;;;;;20.58;78.87;100243.61;102394;280;93472;-55
2023/06/18 06:23:21;;;;;;;;;;;;;;;20.71;78.78;100255.55;102479;280;97540;-57
2023/06/18 06:25:57;;;;;;;;;;;;;;;20.83;78.41;100256.77;102554;280;119578;-57
2023/06/18 06:28:31;;;;;;;;;;;;;;;20.89;78.13;100257.38;102474;280;105887;-55
2023/06/18 06:31:07;;;;;;;;;;;;;;;20.98;77.82;100261.58;102395;280;114572;-54
2023/06/18 06:33:38;;;;;;;;;;;;;;;21.10;77.84;100260.02;102439;269;94600;-62
2023/06/18 06:36:13;;;;;;;;;;;;;;;21.25;77.57;100259.59;102380;280;96223;-57
2023/06/18 06:38:48;;;;;;;;;;;;;;;21.38;77.03;100258.15;102414;280;120267;-58
2023/06/18 06:41:23;;;;;;;;;;;;;;;21.50;76.75;100259.95;102384;269;105459;-57
2023/06/18 06:43:56;;;;;;;;;;;;;;;21.63;76.57;100256.02;102267;280;117960;-61
2023/06/18 06:46:27;;;;;;;;;;;;;;;21.72;76.24;100253.00;102391;280;93926;-58
2023/06/18 06:49:00;;;;;;;;;;;;;;;21.78;76.29;100251.83;102416;280;97740;-55
2023/06/18 06:51:35;;;;;;;;;;;;;;;21.85;75.98;100249.79;102387;280;118673;-55
2023/06/18 06:54:14;;;;;;;;;;;;;;;21.91;76.00;100251.33;102403;280;105510;-54
2023/06/18 06:56:58;;;;;;;;;;;;;;;22.00;75.59;100256.71;102344;280;114833;-52
2023/06/18 06:59:40;;;;;;;;;;;;;;;22.10;75.18;100254.34;102395;280;94582;-55
2023/06/18 07:02:20;;;;;;;;;;;;;;;22.17;74.95;100258.83;102399;280;97695;-55
2023/06/18 07:04:54;;;;;;;;;;;;;;;22.25;74.65;100259.19;102489;280;121345;-59
2023/06/18 07:07:29;;;;;;;;;;;;;;;22.37;74.77;100258.68;102449;280;105353;-59
2023/06/18 07:10:05;;;;;;;;;;;;;;;22.65;74.52;100258.56;102410;280;114558;-54
2023/06/18 07:12:41;;;;;;;;;;;;;;;22.96;73.86;100262.43;102432;280;94174;-54
2023/06/18 07:15:18;;;;;;;;;;;;;;;23.03;72.80;100259.36;102403;280;96677;-55
2023/06/18 07:17:50;;;;;;;;;;;;;;;22.98;72.49;100259.73;102420;280;121173;-55
2023/06/18 07:20:29;;;;;;;;;;;;;;;23.08;72.60;100258.14;102345;280;105561;-55
2023/06/18 07:23:07;;;;;;;;;;;;;;;23.54;72.24;100257.61;102316;280;113108;-55
2023/06/18 07:25:42;;;;;;;;;;;;;;;23.80;71.32;100256.07;102309;280;96615;-55
2023/06/18 07:28:15;;;;;;;;;;;;;;;24.03;70.65;100255.23;102391;280;97709;-64
2023/06/18 07:30:50;;;;;;;;;;;;;;;24.33;70.03;100258.08;102335;280;119873;-58
2023/06/18 07:33:21;;;;;;;;;;;;;;;24.55;69.07;100264.59;102390;280;104552;-57
2023/06/18 07:35:55;;;;;;;;;;;;;;;24.29;68.53;100261.51;102345;280;114265;-56
2023/06/18 07:38:32;;;;;;;;;;;;;;;24.12;68.24;100261.40;102381;280;93406;-55
2023/06/18 07:41:05;;;;;;;;;;;;;;;24.19;67.97;100261.34;102355;280;97636;-59
2023/06/18 07:43:41;;;;;;;;;;;;;;;24.35;67.65;100267.67;102369;280;119891;-55
2023/06/18 07:46:19;;;;;;;;;;;;;;;24.38;67.34;100264.77;102385;280;104278;-55
2023/06/18 07:48:57;;;;;;;;;;;;;;;24.35;67.31;100264.86;102388;280;114654;-58
2023/06/18 07:51:34;;;;;;;;;;;;;;;24.47;67.12;100264.02;102298;280;93973;-61
2023/06/18 07:54:05;;;;;;;;;;;;;;;24.64;66.74;100265.20;102447;280;97702;-60
2023/06/18 07:56:43;;;;;;;;;;;;;;;24.64;65.97;100259.95;102371;280;121061;-61
2023/06/18 07:59:17;;;;;;;;;;;;;;;24.77;65.91;100262.54;102371;280;105289;-58
2023/06/18 08:01:53;;;;;;;;;;;;;;;24.83;65.58;100264.16;102342;280;114837;-59
2023/06/18 08:04:29;;;;;;;;;;;;;;;24.91;64.80;100267.61;102351;280;93342;-58
2023/06/18 08:07:01;;;;;;;;;;;;;;;25.16;64.92;100272.13;102311;280;97052;-59
2023/06/18 08:09:33;;;;;;;;;;;;;;;25.26;63.94;100272.38;102351;280;121261;-59
2023/06/18 08:12:06;;;;;;;;;;;;;;;25.41;63.38;100278.93;102220;280;105210;-60
2023/06/18 08:14:38;;;;;;;;;;;;;;;25.61;63.16;100278.83;102330;280;115562;-60
2023/06/18 08:17:15;;;;;;;;;;;;;;;25.95;62.53;100289.02;102321;280;93609;-58
2023/06/18 08:19:50;;;;;;;;;;;;;;;26.59;62.19;100284.98;102342;273;97151;-63
2023/06/18 08:22:26;;;;;;;;;;;;;;;27.19;61.26;100282.20;102355;280;120612;-63
2023/06/18 08:25:03;;;;;;;;;;;;;;;27.23;59.96;100280.30;102400;280;105245;-66
2023/06/18 08:27:35;;;;;;;;;;;;;;;27.02;58.91;100280.74;102327;280;114480;-64
2023/06/18 08:30:09;;;;;;;;;;;;;;;26.70;58.64;100282.64;102361;280;94728;-63
2023/06/18 08:32:41;;;;;;;;;;;;;;;26.58;58.91;100277.27;102415;280;97634;-62
2023/06/18 08:35:15;;;;;;;;;;;;;;;26.80;58.90;100274.58;102384;280;121046;-64
2023/06/18 08:37:55;;;;;;;;;;;;;;;26.79;58.19;100281.17;102399;280;105593;-63
2023/06/18 08:40:31;;;;;;;;;;;;;;;26.58;58.17;100279.85;102311;280;116158;-64
2023/06/18 08:43:10;;;;;;;;;;;;;;;26.51;57.97;100277.63;102408;280;94433;-62
2023/06/18 08:45:46;;;;;;;;;;;;;;;26.48;57.94;100274.02;102363;280;96494;-64
2023/06/18 08:48:20;;;;;;;;;;;;;;;26.49;57.77;100274.27;102363;280;120090;-58
2023/06/18 08:50:54;;;;;;;;;;;;;;;26.36;57.47;100269.11;102381;280;106708;-62
2023/06/18 08:53:40;;;;;;;;;;;;;;;26.23;57.48;100266.73;102365;280;113595;-64
2023/06/18 08:56:27;;;;;;;;;;;;;;;26.35;57.50;100259.54;102419;280;94961;-63
2023/06/18 08:58:57;;;;;;;;;;;;;;;26.50;57.46;100260.96;102355;280;96495;-64
2023/06/18 09:01:33;;;;;;;;;;;;;;;26.62;57.04;100262.13;102335;280;121475;-64
2023/06/18 09:04:06;;;;;;;;;;;;;;;26.44;56.69;100263.30;102401;280;106350;-64
2023/06/18 09:06:41;;;;;;;;;;;;;;;26.03;56.29;100271.14;102345;280;114483;-63
2023/06/18 09:09:19;;;;;;;;;;;;;;;25.83;56.50;100277.23;102361;280;93106;-63
2023/06/18 09:11:50;;;;;;;;;;;;;;;25.55;56.68;100275.48;102363;280;96847;-62
2023/06/18 09:14:26;;;;;;;;;;;;;;;25.37;56.59;100274.10;102300;281;121970;-61
2023/06/18 09:17:01;;;;;;;;;;;;;;;25.16;56.73;100272.79;102263;281;105895;-60
2023/06/18 09:19:39;;;;;;;;;;;;;;;24.92;57.11;100267.55;102293;280;116024;-62
2023/06/18 09:22:21;;;;;;;;;;;;;;;24.67;57.39;100265.30;102387;280;94403;-54
2023/06/18 09:25:02;;;;;;;;;;;;;;;24.48;57.65;100257.66;102357;280;97996;-56
2023/06/18 09:27:40;;;;;;;;;;;;;;;24.23;58.18;100260.77;102407;280;120363;-54
2023/06/18 09:30:17;;;;;;;;;;;;;;;24.13;58.36;100265.60;102431;280;104130;-58
2023/06/18 09:32:57;;;;;;;;;;;;;;;23.95;58.76;100269.45;102455;280;113906;-57
2023/06/18 09:35:27;;;;;;;;;;;;;;;23.86;58.90;100266.38;102368;280;95369;-57
2023/06/18 09:38:07;;;;;;;;;;;;;;;23.73;58.63;100259.13;102427;280;96472;-58
2023/06/18 09:40:41;;;;;;;;;;;;;;;23.56;59.56;100256.72;102371;280;120322;-58
2023/06/18 09:43:20;;;;;;;;;;;;;;;23.38;59.60;100260.59;102410;280;105398;-55
2023/06/18 09:45:53;;;;;;;;;;;;;;;23.35;61.09;100266.08;102387;280;115050;-55
2023/06/18 09:48:29;;;;;;;;;;;;;;;23.33;62.02;100270.23;102352;280;93625;-58
2023/06/18 09:51:07;;;;;;;;;;;;;;;23.31;62.58;100264.05;102415;280;96605;-59
2023/06/18 09:53:41;;;;;;;;;;;;;;;23.25;62.54;100264.42;102402;280;120811;-55
2023/06/18 09:56:20;;;;;;;;;;;;;;;23.18;62.68;100265.65;102390;280;105960;-54
2023/06/18 09:58:51;;;;;;;;;;;;;;;23.09;63.02;100269.39;102423;280;114074;-55
2023/06/18 10:01:29;;;;;;;;;;;;;;;23.07;62.99;100268.73;102385;280;93659;-55
2023/06/18 10:04:04;;;;;;;;;;;;;;;22.98;63.13;100270.70;102476;280;96545;-54
2023/06/18 10:06:45;;;;;;;;;;;;;;;22.91;63.38;100272.79;102464;280;120605;-55
2023/06/18 10:09:22;;;;;;;;;;;;;;;22.69;63.84;100277.41;102422;269;104968;-57
2023/06/18 10:11:55;;;;;;;;;;;;;;;22.49;63.66;100277.98;102396;280;115084;-56
2023/06/18 10:14:30;;;;;;;;;;;;;;;22.37;63.99;100276.80;102438;280;94997;-57
2023/06/18 10:17:09;;;;;;;;;;;;;;;22.25;64.09;100273.28;102500;280;97274;-57
2023/06/18 10:19:50;;;;;;;;;;;;;;;22.18;64.30;100271.42;102433;280;121399;-57
2023/06/18 10:22:27;;;;;;;;;;;;;;;22.13;64.55;100263.77;102270;280;105624;-56
2023/06/18 10:25:02;;;;;;;;;;;;;;;22.09;65.09;100264.57;102372;280;113898;-55
2023/06/18 10:27:36;;;;;;;;;;;;;;;22.10;65.49;100259.29;102332;280;94876;-63
2023/06/18 10:30:09;;;;;;;;;;;;;;;22.07;66.10;100255.38;102392;280;98235;-64
2023/06/18 10:32:39;;;;;;;;;;;;;;;21.98;66.86;100248.77;102418;280;119948;-57
2023/06/18 10:35:12;;;;;;;;;;;;;;;21.94;67.01;100248.27;102389;280;107301;-58
2023/06/18 10:37:47;;;;;;;;;;;;;;;21.87;67.31;100254.70;102377;280;113883;-57
2023/06/18 10:40:24;;;;;;;;;;;;;;;21.83;67.89;100253.02;102385;269;93012;-60
2023/06/18 10:43:02;;;;;;;;;;;;;;;21.79;68.34;100262.29;102444;269;97625;-54
2023/06/18 10:45:37;;;;;;;;;;;;;;;21.74;68.42;100266.71;102419;280;120074;-54
2023/06/18 10:48:23;;;;;;;;;;;;;;;21.66;68.84;100275.13;102431;280;103975;-55
2023/06/18 10:51:15;;;;;;;;;;;;;;;21.60;69.11;100274.53;102431;280;114749;-55
2023/06/18 10:53:46;;;;;;;;;;;;;;;21.54;69.44;100276.36;102479;280;95501;-66
2023/06/18 10:56:23;;;;;;;;;;;;;;;21.48;69.44;100280.73;102375;280;98417;-64
2023/06/18 10:58:57;;;;;;;;;;;;;;;21.42;69.31;100283.64;102458;280;119656;-62
2023/06/18 11:01:31;;;;;;;;;;;;;;;21.33;69.45;100288.35;102407;280;105869;-62
2023/06/18 11:04:05;;;;;;;;;;;;;;;21.23;69.33;100291.61;102386;280;114199;-63
2023/06/18 11:06:42;;;;;;;;;;;;;;;21.16;69.30;100293.32;102338;280;96477;-61
2023/06/18 11:09:16;;;;;;;;;;;;;;;21.13;69.52;100290.39;102389;269;96200;-65
2023/06/18 11:11:51;;;;;;;;;;;;;;;21.08;69.74;100292.69;102353;280;121135;-65
2023/06/18 11:14:22;;;;;;;;;;;;;;;21.05;69.92;100290.05;102378;280;103843;-64
2023/06/18 11:17:10;;;;;;;;;;;;;;;21.05;70.05;100293.61;102364;280;114507;-62
2023/06/18 11:19:43;;;;;;;;;;;;;;;21.06;70.10;100293.02;101854;280;97689;-63
2023/06/18 11:22:22;;;;;;;;;;;;;;;21.10;70.11;100298.27;102376;280;98031;-64
2023/06/18 11:24:57;;;;;;;;;;;;;;;21.07;70.24;100304.09;102385;280;119887;-57
2023/06/18 11:27:30;;;;;;;;;;;;;;;21.09;70.19;100304.62;102367;280;104939;-58
2023/06/18 11:30:07;;;;;;;;;;;;;;;21.14;70.18;100305.17;102433;280;114214;-57
2023/06/18 11:32:42;;;;;;;;;;;;;;;21.16;70.35;100305.35;102316;280;93790;-56
2023/06/18 11:35:18;;;;;;;;;;;;;;;21.16;70.47;100306.98;102413;280;96667;-56
2023/06/18 11:37:56;;;;;;;;;;;;;;;21.09;71.00;100302.38;102427;280;120227;-55
2023/06/18 11:40:27;;;;;;;;;;;;;;;21.07;71.42;100297.95;102352;280;105137;-55
2023/06/18 11:43:01;;;;;;;;;;;;;;;21.00;71.73;100302.90;102410;280;112820;-59
2023/06/18 11:45:36;;;;;;;;;;;;;;;20.97;71.92;100304.85;102368;280;96041;-58
2023/06/18 11:48:07;;;;;;;;;;;;;;;20.97;72.07;100306.05;102321;280;97516;-56
2023/06/18 11:50:39;;;;;;;;;;;;;;;20.97;72.48;100306.17;102313;280;121665;-56
2023/06/18 11:53:11;;;;;;;;;;;;;;;20.98;72.59;100308.27;102287;280;104576;-57
2023/06/18 11:55:45;;;;;;;;;;;;;;;20.99;72.77;100317.40;102318;280;115191;-58
2023/06/18 11:58:16;;;;;;;;;;;;;;;21.00;73.09;100323.45;102299;280;95822;-58
2023/06/18 12:00:51;;;;;;;;;;;;;;;21.04;73.10;100327.83;102304;280;97759;-58
2023/06/18 12:03:26;;;;;;;;;;;;;;;21.08;73.25;100332.85;102332;280;121644;-59
2023/06/18 12:06:13;;;;;;;;;;;;;;;21.02;72.44;100334.53;102267;282;105776;-59
2023/06/18 12:08:49;;;;;;;;;;;;;;;21.04;71.87;100329.65;102354;280;113808;-58
2023/06/18 12:11:28;;;;;;;;;;;;;;;21.10;71.51;100326.73;102332;280;94598;-58
2023/06/18 12:14:08;;;;;;;;;;;;;;;21.14;71.25;100321.48;102410;280;96034;-59
2023/06/18 12:16:45;;;;;;;;;;;;;;;21.18;70.77;100315.63;102436;280;119713;-58
2023/06/18 12:19:21;;;;;;;;;;;;;;;21.10;70.35;100313.36;102403;280;105181;-56
2023/06/18 12:21:56;;;;;;;;;;;;;;;20.90;70.21;100305.98;102396;280;114331;-56
2023/06/18 12:24:29;;;;;;;;;;;;;;;20.88;70.05;100296.48;102269;282;96657;-56
2023/06/18 12:27:04;;;;;;;;;;;;;;;20.73;70.09;100288.73;102358;280;97805;-55
2023/06/18 12:29:41;;;;;;;;;;;;;;;20.58;70.39;100278.53;102362;280;119433;-57
2023/06/18 12:32:17;;;;;;;;;;;;;;;20.44;70.98;100276.44;102304;280;106052;-57
2023/06/18 12:34:55;;;;;;;;;;;;;;;20.26;71.39;100274.80;102375;280;113542;-62
2023/06/18 12:37:36;;;;;;;;;;;;;;;20.24;71.95;100280.17;102383;280;94517;-60
2023/06/18 12:40:14;;;;;;;;;;;;;;;20.15;72.36;100280.16;102340;280;97172;-57
2023/06/18 12:42:45;;;;;;;;;;;;;;;20.13;72.96;100277.28;102361;269;120300;-60
2023/06/18 12:45:16;;;;;;;;;;;;;;;20.14;73.24;100277.73;102342;280;104736;-59
2023/06/18 12:47:58;;;;;;;;;;;;;;;20.21;73.63;100278.31;102349;280;116096;-56
2023/06/18 12:50:47;;;;;;;;;;;;;;;20.24;73.92;100274.31;102315;280;96724;-56
2023/06/18 12:53:20;;;;;;;;;;;;;;;20.32;74.18;100273.00;102332;280;98001;-58
2023/06/18 12:55:58;;;;;;;;;;;;;;;20.33;74.57;100272.64;102329;280;120599;-58
2023/06/18 12:58:34;;;;;;;;;;;;;;;20.38;74.43;100274.83;102303;280;105930;-59
2023/06/18 13:01:06;;;;;;;;;;;;;;;20.39;74.55;100270.02;102320;280;113996;-58
2023/06/18 13:03:45;;;;;;;;;;;;;;;20.44;74.64;100264.09;102378;280;97146;-59
2023/06/18 13:06:20;;;;;;;;;;;;;;;20.51;75.06;100266.75;102441;280;97229;-60
2023/06/18 13:08:57;;;;;;;;;;;;;;;20.57;75.30;100266.17;102417;280;119238;-57
2023/06/18 13:11:36;;;;;;;;;;;;;;;20.61;75.55;100260.72;102399;280;104688;-58
2023/06/18 13:14:09;;;;;;;;;;;;;;;20.67;75.15;100262.59;102430;280;113875;-58